Time;durP1;ratioP1;P1;durP2;ratioP2;P2;SDS_P1;SDS_P2;PMS_P1;PMS_P2;Temp;Humidity;BMP_temperature;BMP_pressure;BME280_temperature;BME280_humidity;BME280_pressure;Samples;Min_cycle;Max_cycle;Signal;HPM_P1;HPM_P2
2021/07/28 00:01:08;;;;;;;;;;;;;;;24.93;65.30;98901.28;1873494;76;20348;-66
2021/07/28 00:03:43;;;;;;;;;;;;;;;24.89;65.73;98888.23;1892734;76;20100;-63
2021/07/28 00:06:22;;;;;;;;;;;;;;;24.77;65.78;98885.34;1873362;76;20348;-67
2021/07/28 00:09:15;;;;;;;;;;;;;;;24.51;66.80;98891.40;1873430;76;20359;-64
2021/07/28 00:11:49;;;;;;;;;;;;;;;24.44;66.96;98885.51;1893035;76;20442;-64
2021/07/28 00:14:43;;;;;;;;;;;;;;;24.47;67.25;98887.18;1879155;75;20152;-61
2021/07/28 00:17:18;;;;;;;;;;;;;;;24.33;67.93;98874.62;1873441;76;20351;-64
2021/07/28 00:25:42;;;;;;;;;;;;;;;24.25;68.37;98877.61;1873304;76;20351;-61
2021/07/28 00:28:17;;;;;;;;;;;;;;;24.33;68.16;98871.98;1873316;76;20101;-64
2021/07/28 00:30:52;;;;;;;;;;;;;;;24.46;67.61;98882.38;1873485;76;20098;-64
2021/07/28 00:33:26;;;;;;;;;;;;;;;24.60;67.20;98892.73;1837875;77;20103;-62
2021/07/28 00:36:01;;;;;;;;;;;;;;;24.71;67.22;98902.80;1873422;76;20101;-60
2021/07/28 00:38:35;;;;;;;;;;;;;;;24.75;67.32;98894.64;1892780;76;20096;-60
2021/07/28 00:41:12;;;;;;;;;;;;;;;24.78;67.21;98885.28;1873473;76;20098;-64
2021/07/28 00:43:47;;;;;;;;;;;;;;;24.83;66.87;98877.98;1873484;76;20101;-60
2021/07/28 00:46:40;;;;;;;;;;;;;;;24.96;66.47;98877.36;1873430;76;20376;-63
2021/07/28 00:49:53;;;;;;;;;;;;;;;25.09;65.88;98869.25;1869195;75;20144;-63
2021/07/28 00:52:49;;;;;;;;;;;;;;;25.08;65.58;98858.27;1873410;76;20212;-65
2021/07/28 00:55:23;;;;;;;;;;;;;;;25.02;65.69;98866.52;1873472;76;20097;-64
2021/07/28 00:58:01;;;;;;;;;;;;;;;25.03;65.80;98874.81;1873471;76;20097;-62
2021/07/28 01:00:43;;;;;;;;;;;;;;;24.99;65.78;98870.64;1892816;76;20235;-62
2021/07/28 01:03:42;;;;;;;;;;;;;;;24.85;66.29;98875.25;1892733;76;20101;-64
2021/07/28 01:06:35;;;;;;;;;;;;;;;24.81;66.80;98873.24;1892747;76;20207;-62
2021/07/28 01:09:30;;;;;;;;;;;;;;;24.74;67.03;98868.34;1873408;76;20093;-62
2021/07/28 01:12:07;;;;;;;;;;;;;;;24.74;67.12;98878.42;1873394;76;20098;-64
2021/07/28 01:14:44;;;;;;;;;;;;;;;24.76;67.05;98889.77;1873369;76;20184;-65
2021/07/28 01:17:19;;;;;;;;;;;;;;;24.74;67.15;98883.70;1873263;76;20098;-63
2021/07/28 01:20:15;;;;;;;;;;;;;;;24.68;67.43;98891.92;1873375;76;20307;-62
2021/07/28 01:22:52;;;;;;;;;;;;;;;24.64;67.41;98883.75;1873453;76;20212;-64
2021/07/28 01:25:28;;;;;;;;;;;;;;;24.59;67.62;98883.97;1873422;76;20101;-63
2021/07/28 01:28:24;;;;;;;;;;;;;;;24.56;67.53;98877.99;1873410;76;20344;-61
2021/07/28 01:31:18;;;;;;;;;;;;;;;24.55;67.46;98873.63;1873372;76;20105;-61
2021/07/28 01:33:54;;;;;;;;;;;;;;;24.55;67.44;98874.95;1873374;76;20098;-62
2021/07/28 01:36:29;;;;;;;;;;;;;;;24.60;67.36;98882.17;1873425;76;20098;-60
2021/07/28 01:39:22;;;;;;;;;;;;;;;24.69;67.20;98880.43;1873575;76;20212;-60
2021/07/28 01:41:59;;;;;;;;;;;;;;;24.72;67.22;98884.70;1892775;76;20445;-60
2021/07/28 01:44:32;;;;;;;;;;;;;;;24.76;67.19;98874.41;1892741;76;20208;-60
2021/07/28 01:47:07;;;;;;;;;;;;;;;24.79;67.33;98879.05;1873451;76;20212;-60
2021/07/28 01:50:00;;;;;;;;;;;;;;;24.78;67.27;98868.13;1892780;76;20203;-60
2021/07/28 01:52:36;;;;;;;;;;;;;;;24.74;67.66;98867.87;1892780;76;20211;-63
2021/07/28 01:55:11;;;;;;;;;;;;;;;24.65;67.95;98874.89;1873465;76;20212;-62
2021/07/28 01:57:46;;;;;;;;;;;;;;;24.62;68.17;98867.13;1873454;76;20098;-65
2021/07/28 02:00:41;;;;;;;;;;;;;;;24.65;68.39;98861.70;1873468;76;20205;-65
2021/07/28 02:03:15;;;;;;;;;;;;;;;24.66;68.39;98860.79;1892785;76;20207;-66
2021/07/28 02:05:50;;;;;;;;;;;;;;;24.54;68.76;98846.86;1873373;76;20254;-63
2021/07/28 02:08:51;;;;;;;;;;;;;;;24.47;69.06;98840.58;1892786;76;20470;-66
2021/07/28 02:11:26;;;;;;;;;;;;;;;24.43;69.12;98836.80;1873502;76;20204;-65
2021/07/28 02:14:19;;;;;;;;;;;;;;;24.46;68.93;98826.98;1873442;76;20347;-64
2021/07/28 02:16:54;;;;;;;;;;;;;;;24.55;68.33;98830.09;1853596;77;20099;-61
2021/07/28 02:19:27;;;;;;;;;;;;;;;24.52;67.87;98818.38;1892760;76;20096;-62
2021/07/28 02:22:01;;;;;;;;;;;;;;;24.36;68.13;98834.05;1892747;76;20343;-64
2021/07/28 02:24:36;;;;;;;;;;;;;;;24.23;68.76;98856.20;1892788;76;20211;-60
2021/07/28 02:27:12;;;;;;;;;;;;;;;24.06;70.38;98862.23;1873403;76;20098;-60
2021/07/28 02:29:46;;;;;;;;;;;;;;;23.88;71.51;98848.11;1873452;76;20098;-62
2021/07/28 02:32:21;;;;;;;;;;;;;;;23.71;71.66;98849.30;1892750;76;20093;-62
2021/07/28 02:34:55;;;;;;;;;;;;;;;23.60;73.14;98852.41;1873432;76;20216;-61
2021/07/28 02:37:30;;;;;;;;;;;;;;;23.43;74.06;98838.65;1873396;76;20098;-62
2021/07/28 02:40:06;;;;;;;;;;;;;;;23.32;74.60;98827.73;1892747;76;20100;-62
2021/07/28 02:42:43;;;;;;;;;;;;;;;23.33;74.15;98821.54;1873235;76;20102;-63
2021/07/28 02:45:36;;;;;;;;;;;;;;;23.56;72.44;98828.00;1873410;76;20206;-62
2021/07/28 02:48:11;;;;;;;;;;;;;;;23.79;70.94;98833.59;1873459;76;20454;-63
2021/07/28 02:50:51;;;;;;;;;;;;;;;24.03;69.35;98842.14;1892720;76;20350;-61
2021/07/28 02:53:27;;;;;;;;;;;;;;;24.24;68.48;98848.66;1873216;76;20355;-61
2021/07/28 02:56:07;;;;;;;;;;;;;;;24.27;69.32;98861.70;1872593;76;20458;-62
2021/07/28 02:58:42;;;;;;;;;;;;;;;24.07;69.95;98853.86;1892799;76;20203;-62
2021/07/28 03:01:17;;;;;;;;;;;;;;;23.89;71.78;98852.48;1837799;77;20100;-62
2021/07/28 03:03:52;;;;;;;;;;;;;;;23.64;72.58;98841.30;1892788;76;20093;-60
2021/07/28 03:06:26;;;;;;;;;;;;;;;23.51;73.66;98852.80;1873468;76;20192;-63
2021/07/28 03:09:02;;;;;;;;;;;;;;;23.39;74.67;98865.59;1873396;76;20363;-62
2021/07/28 03:11:37;;;;;;;;;;;;;;;23.27;74.90;98877.96;1864443;76;20113;-50
2021/07/28 03:14:12;;;;;;;;;;;;;;;23.26;75.13;98893.84;1873340;76;20157;-48
2021/07/28 03:17:06;;;;;;;;;;;;;;;23.49;74.74;98902.94;1855394;76;20116;-48
2021/07/28 03:19:42;;;;;;;;;;;;;;;23.63;74.53;98904.96;1854729;76;20119;-47
2021/07/28 03:22:24;;;;;;;;;;;;;;;23.76;74.11;98919.37;1854196;76;20116;-47
2021/07/28 03:25:18;;;;;;;;;;;;;;;23.69;74.62;98941.60;1855123;76;20226;-42
2021/07/28 03:28:12;;;;;;;;;;;;;;;23.73;74.53;98950.25;1870163;76;20220;-45
2021/07/28 03:30:49;;;;;;;;;;;;;;;23.85;74.28;98939.66;1892789;76;20092;-44
2021/07/28 03:33:23;;;;;;;;;;;;;;;23.88;74.16;98946.10;1868246;76;20363;-63
2021/07/28 03:36:18;;;;;;;;;;;;;;;23.74;74.67;98945.40;1873363;76;20208;-63
2021/07/28 03:39:00;;;;;;;;;;;;;;;23.57;74.82;98919.73;1892806;76;20131;-63
2021/07/28 03:41:34;;;;;;;;;;;;;;;23.37;75.99;98906.94;1873424;76;20097;-64
2021/07/28 03:44:09;;;;;;;;;;;;;;;23.19;76.83;98903.77;1873488;76;20098;-64
2021/07/28 03:46:44;;;;;;;;;;;;;;;23.02;77.20;98905.76;1873121;76;20355;-63
2021/07/28 03:49:19;;;;;;;;;;;;;;;22.88;78.66;98910.72;1869417;76;20113;-63
2021/07/28 03:51:53;;;;;;;;;;;;;;;22.76;79.25;98908.09;1873451;76;20097;-63
2021/07/28 03:54:34;;;;;;;;;;;;;;;22.70;79.74;98903.09;1864035;76;20113;-62
2021/07/28 03:57:16;;;;;;;;;;;;;;;22.47;80.18;98902.21;1879305;76;20123;-61
2021/07/28 03:59:50;;;;;;;;;;;;;;;22.29;80.97;98891.09;1858880;76;20228;-62
2021/07/28 04:02:27;;;;;;;;;;;;;;;22.09;83.44;98879.97;1859031;76;20119;-63
2021/07/28 04:05:20;;;;;;;;;;;;;;;21.90;84.64;98864.02;1856863;76;20230;-63
2021/07/28 04:07:56;;;;;;;;;;;;;;;21.85;84.84;98865.52;1873515;76;20447;-63
2021/07/28 04:10:31;;;;;;;;;;;;;;;21.88;84.92;98871.12;1892795;76;20465;-65
2021/07/28 04:13:05;;;;;;;;;;;;;;;21.92;84.92;98874.02;1865425;76;20200;-61
2021/07/28 04:16:06;;;;;;;;;;;;;;;21.95;85.86;98873.05;1861471;76;20127;-63
2021/07/28 04:19:00;;;;;;;;;;;;;;;21.92;86.25;98875.80;1854219;76;20115;-62
2021/07/28 04:21:35;;;;;;;;;;;;;;;21.86;86.96;98874.25;1870502;76;20380;-63
2021/07/28 04:24:17;;;;;;;;;;;;;;;21.83;87.20;98873.03;1860407;76;20127;-63
2021/07/28 04:26:51;;;;;;;;;;;;;;;21.69;87.42;98874.84;1854968;76;20233;-61
2021/07/28 04:29:27;;;;;;;;;;;;;;;21.60;87.70;98868.17;1854177;76;20170;-61
2021/07/28 04:32:02;;;;;;;;;;;;;;;21.56;88.40;98865.70;1872404;76;20223;-62
2021/07/28 04:34:39;;;;;;;;;;;;;;;21.54;88.65;98870.99;1855307;76;20126;-66
2021/07/28 04:37:15;;;;;;;;;;;;;;;21.63;88.90;98879.02;1853730;76;20183;-64
2021/07/28 04:39:50;;;;;;;;;;;;;;;21.87;88.45;98877.27;1866305;76;20118;-64
2021/07/28 04:42:24;;;;;;;;;;;;;;;22.23;86.92;98871.59;1871573;76;20113;-62
2021/07/28 04:44:59;;;;;;;;;;;;;;;22.43;85.91;98875.63;1871535;76;20113;-62
2021/07/28 04:47:35;;;;;;;;;;;;;;;22.44;85.02;98876.04;1860454;76;20112;-63
2021/07/28 04:50:11;;;;;;;;;;;;;;;22.44;84.59;98872.09;1850688;76;20453;-62
2021/07/28 04:52:45;;;;;;;;;;;;;;;22.50;84.23;98867.05;1842671;76;20277;-63
2021/07/28 04:55:39;;;;;;;;;;;;;;;22.60;83.75;98873.66;1855085;76;20190;-63
2021/07/28 04:58:13;;;;;;;;;;;;;;;22.71;83.98;98866.18;1865105;76;20119;-63
2021/07/28 05:00:51;;;;;;;;;;;;;;;22.85;83.77;98869.59;1819242;77;20375;-63
2021/07/28 05:03:26;;;;;;;;;;;;;;;22.98;83.14;98874.39;1855382;76;20227;-62
2021/07/28 05:06:00;;;;;;;;;;;;;;;23.16;81.94;98873.16;1860041;76;20373;-63
2021/07/28 05:08:36;;;;;;;;;;;;;;;23.49;80.85;98876.59;1853096;76;20120;-65
2021/07/28 05:11:30;;;;;;;;;;;;;;;23.91;79.06;98876.11;1857888;76;20158;-62
2021/07/28 05:14:05;;;;;;;;;;;;;;;24.24;76.58;98873.72;1855645;76;20370;-63
2021/07/28 05:16:40;;;;;;;;;;;;;;;24.42;76.56;98868.89;1857326;76;20231;-64
2021/07/28 05:19:15;;;;;;;;;;;;;;;24.51;75.76;98870.77;1869084;76;20249;-62
2021/07/28 05:21:53;;;;;;;;;;;;;;;24.47;74.66;98870.91;1853955;76;20175;-66
2021/07/28 05:24:28;;;;;;;;;;;;;;;24.65;75.57;98861.70;1873004;76;20164;-63
2021/07/28 05:27:06;;;;;;;;;;;;;;;25.16;72.99;98861.41;1879253;76;20230;-62
2021/07/28 05:30:09;;;;;;;;;;;;;;;25.77;69.96;98859.59;1853711;76;20120;-62
2021/07/28 05:33:10;;;;;;;;;;;;;;;26.20;68.14;98863.92;1863928;76;20125;-63
2021/07/28 05:35:48;;;;;;;;;;;;;;;26.49;67.07;98856.16;1855944;76;20210;-63
2021/07/28 05:38:22;;;;;;;;;;;;;;;26.56;66.07;98860.66;1856035;76;20120;-62
2021/07/28 05:41:15;;;;;;;;;;;;;;;26.70;67.42;98851.95;1853166;76;20323;-63
2021/07/28 05:43:50;;;;;;;;;;;;;;;27.16;65.34;98854.58;1859120;76;20115;-67
2021/07/28 05:46:25;;;;;;;;;;;;;;;28.50;61.70;98857.92;1868609;76;20113;-62
2021/07/28 05:49:06;;;;;;;;;;;;;;;29.84;57.04;98861.81;1860199;76;20115;-65
2021/07/28 05:51:41;;;;;;;;;;;;;;;30.97;54.40;98866.63;1854199;76;20112;-64
2021/07/28 05:54:23;;;;;;;;;;;;;;;32.16;51.23;98869.91;1865876;76;20123;-66
2021/07/28 05:57:04;;;;;;;;;;;;;;;33.23;48.67;98869.70;1862363;76;20227;-63
2021/07/28 05:59:57;;;;;;;;;;;;;;;34.25;44.90;98873.41;1873389;76;20455;-64
2021/07/28 06:02:32;;;;;;;;;;;;;;;34.53;43.17;98877.64;1892823;76;20199;-62
2021/07/28 06:05:07;;;;;;;;;;;;;;;34.44;43.29;98879.80;1858361;76;20114;-63
2021/07/28 06:08:03;;;;;;;;;;;;;;;34.86;42.58;98880.94;1866993;76;20116;-63
2021/07/28 06:10:57;;;;;;;;;;;;;;;35.50;40.33;98881.74;1849692;76;20121;-61
2021/07/28 06:13:32;;;;;;;;;;;;;;;35.95;39.20;98885.12;1865100;76;20222;-63
2021/07/28 06:16:26;;;;;;;;;;;;;;;36.61;38.11;98885.97;1866583;76;20113;-63
2021/07/28 06:19:20;;;;;;;;;;;;;;;37.17;37.22;98886.20;1855553;76;20178;-63
2021/07/28 06:21:54;;;;;;;;;;;;;;;37.75;35.86;98891.05;1858564;76;20237;-62
2021/07/28 06:24:29;;;;;;;;;;;;;;;38.10;34.87;98898.69;1864722;76;20111;-62
2021/07/28 06:27:06;;;;;;;;;;;;;;;38.56;34.46;98898.41;1880479;76;20117;-64
2021/07/28 06:29:47;;;;;;;;;;;;;;;39.02;33.68;98901.05;1865003;76;20109;-64
2021/07/28 06:32:21;;;;;;;;;;;;;;;39.23;33.39;98901.06;1892702;76;20179;-62
2021/07/28 06:34:56;;;;;;;;;;;;;;;39.75;32.72;98903.42;1873439;76;20208;-61
2021/07/28 06:37:49;;;;;;;;;;;;;;;40.60;31.88;98907.39;1865564;76;20272;-62
2021/07/28 06:40:24;;;;;;;;;;;;;;;41.32;30.57;98915.24;1865880;76;20295;-61
2021/07/28 06:42:58;;;;;;;;;;;;;;;41.71;29.63;98916.45;1855551;76;20148;-63
2021/07/28 06:45:33;;;;;;;;;;;;;;;41.79;29.39;98915.00;1850893;76;20229;-63
2021/07/28 06:48:09;;;;;;;;;;;;;;;41.99;28.62;98915.86;1873200;76;20097;-63
2021/07/28 06:51:03;;;;;;;;;;;;;;;41.07;29.42;98914.06;1880769;76;20221;-61
2021/07/28 06:53:37;;;;;;;;;;;;;;;40.86;30.17;98908.45;1873397;76;20462;-62
2021/07/28 06:56:14;;;;;;;;;;;;;;;40.98;30.03;98908.37;1852807;76;20115;-63
2021/07/28 06:58:54;;;;;;;;;;;;;;;41.14;29.74;98912.84;1892673;76;20298;-62
2021/07/28 07:01:35;;;;;;;;;;;;;;;41.20;29.91;98917.04;1852212;77;20103;-63
2021/07/28 07:04:15;;;;;;;;;;;;;;;41.38;29.32;98922.66;1872495;76;20208;-60
2021/07/28 07:06:50;;;;;;;;;;;;;;;40.96;29.72;98915.82;1863755;76;20218;-61
2021/07/28 07:09:24;;;;;;;;;;;;;;;40.51;30.24;98926.37;1840221;76;20117;-62
2021/07/28 07:12:18;;;;;;;;;;;;;;;40.26;30.67;98918.87;1873325;76;20101;-63
2021/07/28 07:14:53;;;;;;;;;;;;;;;40.34;30.86;98928.30;1873303;76;20431;-59
2021/07/28 07:17:53;;;;;;;;;;;;;;;41.32;29.84;98934.20;1873063;76;20164;-60
2021/07/28 07:20:27;;;;;;;;;;;;;;;42.27;28.54;98935.86;1873348;76;20295;-62
2021/07/28 07:23:21;;;;;;;;;;;;;;;42.09;28.10;98931.85;1868435;76;20118;-62
2021/07/28 07:26:02;;;;;;;;;;;;;;;41.51;29.07;98936.45;1854344;76;20224;-62
2021/07/28 07:28:38;;;;;;;;;;;;;;;41.25;29.45;98929.20;1856713;76;20115;-69
2021/07/28 07:31:31;;;;;;;;;;;;;;;40.95;29.87;98930.39;1856850;76;20234;-62
2021/07/28 07:34:06;;;;;;;;;;;;;;;40.89;30.21;98933.80;1862094;76;20108;-61
2021/07/28 07:36:40;;;;;;;;;;;;;;;40.75;30.25;98921.36;1892678;76;20093;-67
2021/07/28 07:39:15;;;;;;;;;;;;;;;40.53;30.92;98932.95;1876037;76;20113;-68
2021/07/28 07:41:56;;;;;;;;;;;;;;;40.95;30.58;98941.22;1858357;75;20225;-65
2021/07/28 07:44:31;;;;;;;;;;;;;;;41.34;30.11;98944.34;1860198;76;20101;-63
2021/07/28 07:47:33;;;;;;;;;;;;;;;41.81;29.31;98948.20;1875730;76;20101;-62
2021/07/28 07:50:09;;;;;;;;;;;;;;;41.85;29.19;98942.71;1873272;76;20102;-64
2021/07/28 07:52:50;;;;;;;;;;;;;;;41.81;29.31;98948.20;1872396;76;20212;-64
2021/07/28 07:55:25;;;;;;;;;;;;;;;41.79;29.07;98950.77;1892670;76;20097;-62
2021/07/28 07:58:05;;;;;;;;;;;;;;;41.91;28.79;98945.70;1883188;76;20112;-66
2021/07/28 08:00:40;;;;;;;;;;;;;;;41.88;28.86;98938.79;1851802;76;20114;-67
2021/07/28 08:03:37;;;;;;;;;;;;;;;41.74;29.13;98945.05;1854061;76;20168;-63
2021/07/28 08:06:30;;;;;;;;;;;;;;;41.95;28.87;98953.84;1942764;73;20389;-68
2021/07/28 08:09:04;;;;;;;;;;;;;;;41.94;28.93;98951.66;1857438;76;20120;-68
2021/07/28 08:11:45;;;;;;;;;;;;;;;41.88;29.15;98951.51;1858971;76;20108;-65
2021/07/28 08:14:20;;;;;;;;;;;;;;;42.04;29.06;98954.09;1863973;76;20115;-65
2021/07/28 08:16:55;;;;;;;;;;;;;;;42.49;28.51;98954.45;1892726;76;20203;-65
2021/07/28 08:19:30;;;;;;;;;;;;;;;42.48;28.30;98947.31;1936249;73;20369;-65
2021/07/28 08:22:10;;;;;;;;;;;;;;;42.45;28.52;98951.77;1872377;76;20097;-66
2021/07/28 08:24:45;;;;;;;;;;;;;;;42.59;28.39;98950.05;1858077;76;20111;-67
2021/07/28 08:27:22;;;;;;;;;;;;;;;42.84;27.88;98945.16;1859005;76;20110;-66
2021/07/28 08:30:16;;;;;;;;;;;;;;;42.21;28.72;98954.73;1873288;76;20355;-66
2021/07/28 08:33:10;;;;;;;;;;;;;;;42.36;28.42;98949.34;1837340;77;20235;-67
2021/07/28 08:35:45;;;;;;;;;;;;;;;42.65;28.17;98943.05;1873499;76;20220;-66
2021/07/28 08:38:25;;;;;;;;;;;;;;;42.85;27.90;98942.80;1872411;76;20102;-65
2021/07/28 08:41:37;;;;;;;;;;;;;;;42.96;27.88;98944.16;1892301;76;20493;-67
2021/07/28 08:44:34;;;;;;;;;;;;;;;42.77;28.07;98944.23;1873336;76;20255;-63
2021/07/28 08:47:28;;;;;;;;;;;;;;;42.58;28.31;98938.89;1849350;76;20119;-65
2021/07/28 08:50:08;;;;;;;;;;;;;;;42.43;28.59;98940.27;1862690;76;20270;-67
2021/07/28 08:52:42;;;;;;;;;;;;;;;41.71;29.37;98937.30;1873375;76;20098;-61
2021/07/28 08:55:22;;;;;;;;;;;;;;;41.75;29.67;98935.88;1892693;76;20441;-64
2021/07/28 08:58:20;;;;;;;;;;;;;;;41.64;29.43;98935.30;1872462;76;20176;-65
2021/07/28 09:00:57;;;;;;;;;;;;;;;41.42;29.54;98934.30;1892579;76;20105;-64
2021/07/28 09:03:33;;;;;;;;;;;;;;;41.27;30.13;98927.13;1892646;76;20212;-62
2021/07/28 09:06:07;;;;;;;;;;;;;;;40.91;30.27;98938.52;1873497;76;20344;-63
2021/07/28 09:09:02;;;;;;;;;;;;;;;40.59;30.91;98932.26;1892647;76;20211;-64
2021/07/28 09:12:16;;;;;;;;;;;;;;;39.83;32.15;98927.75;1869142;76;20247;-62
2021/07/28 09:14:57;;;;;;;;;;;;;;;39.22;33.09;98919.63;1873480;76;20340;-63
2021/07/28 09:17:52;;;;;;;;;;;;;;;38.92;33.60;98917.90;1864023;75;20232;-62
2021/07/28 09:20:52;;;;;;;;;;;;;;;38.25;34.74;98913.76;1872320;76;20105;-64
2021/07/28 09:24:14;;;;;;;;;;;;;;;37.31;35.91;98904.50;1873830;75;20137;-64
2021/07/28 09:26:59;;;;;;;;;;;;;;;36.46;37.65;98886.47;1892873;76;20382;-63
2021/07/28 09:29:39;;;;;;;;;;;;;;;36.14;38.29;98897.65;1872516;76;20212;-62
2021/07/28 09:32:21;;;;;;;;;;;;;;;35.86;38.82;98884.64;1864344;75;20233;-62
2021/07/28 09:35:44;;;;;;;;;;;;;;;35.39;39.94;98885.91;1857616;76;20112;-66
2021/07/28 09:38:37;;;;;;;;;;;;;;;34.95;40.27;98881.45;1856428;76;20481;-64
2021/07/28 09:41:29;;;;;;;;;;;;;;;34.76;40.46;98883.14;1892423;76;20145;-66
2021/07/28 09:44:04;;;;;;;;;;;;;;;34.61;40.04;98867.10;1873077;76;20212;-64
2021/07/28 09:46:40;;;;;;;;;;;;;;;34.40;39.31;98875.69;1892339;76;20358;-65
2021/07/28 09:49:50;;;;;;;;;;;;;;;34.19;39.52;98873.09;1960493;73;20481;-64
2021/07/28 09:52:43;;;;;;;;;;;;;;;33.99;39.92;98877.48;1873087;76;20255;-65
2021/07/28 09:55:42;;;;;;;;;;;;;;;33.84;40.80;98867.15;1873138;76;20101;-65
2021/07/28 09:58:17;;;;;;;;;;;;;;;33.65;40.26;98860.34;1892677;76;20105;-63
2021/07/28 10:01:11;;;;;;;;;;;;;;;33.36;41.39;98858.31;1873205;76;20102;-65
2021/07/28 10:04:13;;;;;;;;;;;;;;;33.24;42.03;98858.02;1872627;76;20208;-63
2021/07/28 10:06:50;;;;;;;;;;;;;;;33.12;42.25;98848.34;1858786;76;20364;-62
2021/07/28 10:09:32;;;;;;;;;;;;;;;32.85;42.92;98846.98;1872980;76;20226;-63
2021/07/28 10:12:27;;;;;;;;;;;;;;;32.69;43.60;98841.20;1846255;76;20393;-64
2021/07/28 10:15:21;;;;;;;;;;;;;;;32.60;43.87;98844.99;1872616;76;20168;-62
2021/07/28 10:18:16;;;;;;;;;;;;;;;32.68;44.35;98834.16;1865580;75;20196;-65
2021/07/28 10:20:58;;;;;;;;;;;;;;;32.60;44.34;98842.32;1872069;76;20431;-66
2021/07/28 10:23:33;;;;;;;;;;;;;;;32.60;44.69;98832.97;1871787;76;20427;-65
2021/07/28 10:26:28;;;;;;;;;;;;;;;32.62;44.12;98839.04;1892767;76;20249;-63
2021/07/28 10:29:04;;;;;;;;;;;;;;;32.68;44.72;98840.84;1892683;76;20207;-59
2021/07/28 10:31:49;;;;;;;;;;;;;;;32.58;44.79;98830.91;1892638;76;20093;-64
2021/07/28 10:34:43;;;;;;;;;;;;;;;32.36;45.51;98829.13;1873314;76;20363;-67
2021/07/28 10:48:00;;;;;;;;;;;;;;;31.45;48.47;98822.57;1824508;78;20212;-64
2021/07/28 10:50:43;;;;;;;;;;;;;;;31.11;48.72;98825.95;1892812;76;20096;-64
2021/07/28 10:53:47;;;;;;;;;;;;;;;30.95;48.85;98824.58;1873303;76;20216;-61
2021/07/28 10:57:07;;;;;;;;;;;;;;;30.80;50.40;98826.05;1873207;76;20098;-62
2021/07/28 10:59:43;;;;;;;;;;;;;;;30.54;51.85;98817.34;1873371;76;20205;-63
2021/07/28 11:02:45;;;;;;;;;;;;;;;30.35;52.41;98824.47;1892642;76;20155;-65
2021/07/28 11:05:31;;;;;;;;;;;;;;;30.28;52.33;98809.94;1892696;76;20097;-63
2021/07/28 11:08:08;;;;;;;;;;;;;;;30.37;52.16;98815.91;1892707;76;20215;-62
2021/07/28 11:10:58;;;;;;;;;;;;;;;30.61;52.13;98812.42;1873563;76;20102;-64
2021/07/28 11:13:34;;;;;;;;;;;;;;;30.83;51.75;98809.86;1873473;76;20208;-64
2021/07/28 11:16:15;;;;;;;;;;;;;;;30.84;51.72;98804.92;1892636;76;20362;-56
2021/07/28 11:18:50;;;;;;;;;;;;;;;30.79;51.92;98800.88;1892688;76;20092;-44
2021/07/28 11:21:50;;;;;;;;;;;;;;;30.71;52.29;98792.97;1872478;76;20208;-43
2021/07/28 11:24:45;;;;;;;;;;;;;;;30.74;51.31;98797.70;1873350;76;20209;-45
2021/07/28 11:28:04;;;;;;;;;;;;;;;30.77;51.41;98799.64;1892583;76;20274;-44
2021/07/28 11:30:42;;;;;;;;;;;;;;;30.77;51.64;98794.31;1873251;76;20102;-46
2021/07/28 11:33:23;;;;;;;;;;;;;;;30.75;51.40;98794.91;1892677;76;20211;-43
2021/07/28 11:36:20;;;;;;;;;;;;;;;30.71;51.26;98792.97;1892674;76;20096;-45
2021/07/28 11:39:20;;;;;;;;;;;;;;;30.78;51.04;98781.34;1872507;76;20098;-44
2021/07/28 11:42:22;;;;;;;;;;;;;;;30.87;50.47;98779.85;1872425;76;20101;-41
2021/07/28 11:45:17;;;;;;;;;;;;;;;31.02;50.32;98777.84;1858133;76;20217;-61
2021/07/28 11:48:34;;;;;;;;;;;;;;;31.29;49.05;98782.84;1873443;76;20101;-61
2021/07/28 11:51:25;;;;;;;;;;;;;;;31.52;47.96;98786.42;1872568;76;20097;-58
2021/07/28 11:54:18;;;;;;;;;;;;;;;31.68;47.89;98782.09;1873348;76;20463;-60
2021/07/28 11:57:12;;;;;;;;;;;;;;;32.02;47.11;98780.75;1873329;76;20212;-62
2021/07/28 11:59:54;;;;;;;;;;;;;;;32.39;46.67;98780.80;1892663;76;20442;-59
2021/07/28 12:02:49;;;;;;;;;;;;;;;32.83;45.82;98791.46;1873453;76;20254;-64
2021/07/28 12:05:23;;;;;;;;;;;;;;;33.07;44.84;98785.89;1892690;76;20453;-60
2021/07/28 12:07:58;;;;;;;;;;;;;;;33.31;43.69;98778.95;1873387;76;20102;-61
2021/07/28 12:10:38;;;;;;;;;;;;;;;33.30;42.95;98777.23;1872582;76;20093;-59
2021/07/28 12:13:48;;;;;;;;;;;;;;;33.22;43.23;98775.71;1865410;75;20132;-60
2021/07/28 12:16:22;;;;;;;;;;;;;;;33.01;43.45;98775.20;1873416;76;20208;-60
2021/07/28 12:19:25;;;;;;;;;;;;;;;33.12;43.23;98780.16;1873270;76;20097;-58
2021/07/28 12:22:28;;;;;;;;;;;;;;;33.34;42.77;98783.19;1873318;76;20351;-60
2021/07/28 12:25:23;;;;;;;;;;;;;;;33.59;41.65;98778.77;1892703;76;20207;-59
2021/07/28 12:28:01;;;;;;;;;;;;;;;33.75;41.80;98772.91;1873507;76;20344;-61
2021/07/28 12:30:37;;;;;;;;;;;;;;;33.90;41.38;98779.59;1892724;76;20207;-60
2021/07/28 12:33:50;;;;;;;;;;;;;;;34.06;40.88;98784.41;1873851;75;20243;-60
2021/07/28 12:36:27;;;;;;;;;;;;;;;34.24;40.27;98782.45;1892675;76;20100;-61
2021/07/28 12:39:21;;;;;;;;;;;;;;;34.55;39.59;98775.14;1880153;75;20252;-60
2021/07/28 12:41:55;;;;;;;;;;;;;;;34.86;38.38;98766.98;1873382;76;20360;-63
2021/07/28 12:44:31;;;;;;;;;;;;;;;34.86;38.31;98758.94;1873315;76;20098;-60
2021/07/28 12:47:32;;;;;;;;;;;;;;;34.53;39.00;98765.08;1892502;76;20117;-58
2021/07/28 12:50:08;;;;;;;;;;;;;;;34.27;39.83;98775.00;1873344;76;20094;-61
2021/07/28 12:53:08;;;;;;;;;;;;;;;34.11;39.95;98774.67;1872401;76;20097;-54
2021/07/28 12:55:43;;;;;;;;;;;;;;;34.09;40.46;98768.59;1866195;76;20109;-55
2021/07/28 12:58:18;;;;;;;;;;;;;;;34.10;40.68;98762.27;1892728;76;20358;-60
2021/07/28 13:00:55;;;;;;;;;;;;;;;33.99;40.02;98758.32;1873391;76;20093;-59
2021/07/28 13:03:33;;;;;;;;;;;;;;;33.65;40.59;98757.30;1892642;76;20351;-54
2021/07/28 13:06:28;;;;;;;;;;;;;;;33.22;41.45;98759.66;1873278;76;20351;-59
2021/07/28 13:09:02;;;;;;;;;;;;;;;32.87;41.84;98758.13;1873393;76;20208;-56
2021/07/28 13:12:02;;;;;;;;;;;;;;;32.67;42.16;98763.84;1840079;76;20223;-57
2021/07/28 13:14:37;;;;;;;;;;;;;;;32.72;42.31;98756.75;1863454;76;20270;-55
2021/07/28 13:17:11;;;;;;;;;;;;;;;32.86;42.31;98755.11;1852394;76;20118;-55
2021/07/28 13:19:46;;;;;;;;;;;;;;;32.95;42.34;98753.47;1858886;76;20164;-64
2021/07/28 13:22:22;;;;;;;;;;;;;;;32.98;42.05;98747.39;1859420;76;20164;-63
2021/07/28 13:25:05;;;;;;;;;;;;;;;33.04;41.56;98748.72;1863780;76;20120;-62
2021/07/28 13:27:45;;;;;;;;;;;;;;;33.15;41.26;98745.13;1863712;76;20536;-55
2021/07/28 13:30:38;;;;;;;;;;;;;;;33.12;41.36;98744.89;1821268;77;20121;-56
2021/07/28 13:33:39;;;;;;;;;;;;;;;33.08;41.32;98739.47;1863673;76;20473;-56
2021/07/28 13:36:14;;;;;;;;;;;;;;;32.96;41.60;98738.65;1855855;76;20377;-58
2021/07/28 13:38:52;;;;;;;;;;;;;;;32.96;41.52;98732.46;1860654;76;20119;-60
2021/07/28 13:41:26;;;;;;;;;;;;;;;32.95;41.48;98727.61;1855047;76;20226;-58
2021/07/28 13:44:01;;;;;;;;;;;;;;;32.80;41.49;98728.92;1858529;76;20370;-55
2021/07/28 13:46:35;;;;;;;;;;;;;;;32.64;41.54;98720.86;1856837;76;20119;-57
2021/07/28 13:49:12;;;;;;;;;;;;;;;32.57;41.65;98725.02;1857306;76;20231;-59
2021/07/28 13:51:47;;;;;;;;;;;;;;;32.52;41.71;98713.87;1849242;76;20264;-62
2021/07/28 13:54:22;;;;;;;;;;;;;;;32.55;41.47;98709.59;1852702;76;20118;-58
2021/07/28 13:57:12;;;;;;;;;;;;;;;32.60;41.33;98702.05;1854793;76;20116;-58
2021/07/28 14:00:07;;;;;;;;;;;;;;;32.64;41.37;98703.95;1858872;76;20230;-60
2021/07/28 14:02:58;;;;;;;;;;;;;;;32.54;40.95;98705.24;1873811;76;20473;-58
2021/07/28 14:05:58;;;;;;;;;;;;;;;32.34;41.27;98704.70;1861161;76;20116;-53
2021/07/28 14:08:54;;;;;;;;;;;;;;;32.13;41.60;98712.14;1873177;76;20101;-66
2021/07/28 14:11:48;;;;;;;;;;;;;;;31.90;42.11;98703.80;1862903;76;20233;-57
2021/07/28 14:14:31;;;;;;;;;;;;;;;31.70;42.68;98707.62;1865281;76;20482;-61
2021/07/28 14:17:07;;;;;;;;;;;;;;;31.64;43.13;98701.42;1876967;75;20241;-60
2021/07/28 14:19:42;;;;;;;;;;;;;;;31.63;43.14;98701.07;1873313;76;20348;-59
2021/07/28 14:22:22;;;;;;;;;;;;;;;31.68;43.22;98700.70;1870988;76;20112;-62
2021/07/28 14:24:57;;;;;;;;;;;;;;;31.71;43.41;98666.61;1873381;76;20208;-61
2021/07/28 14:27:32;;;;;;;;;;;;;;;31.67;43.35;98693.66;1873514;76;20204;-65